Flight Track Log - Related Links

Times and Time Zones

All times are in EDT time to prevent confusion due to time zone crossing. See the SLI2069 flight status page for this flight to view local times or setup timezone preferences in your user account.

Time Position Orientation Groundspeed Altitude Reporting Facility
EDT Latitude Longitude Course Direction KTS MPH feet Rate Location/Type
Fri 08:59:00 AM 22.6656 -106.6477 112° Southeast  Level Estimated
Fri 09:00:00 AM 22.6264 -106.5484 113° Southeast  Level Estimated
Fri 09:01:00 AM 22.5871 -106.4492 113° Southeast  Level Estimated
Fri 09:02:00 AM 22.5478 -106.3500 113° Southeast  Level Estimated
Fri 09:03:00 AM 22.5083 -106.2508 113° Southeast  Level Estimated
Fri 09:04:00 AM 22.4689 -106.1517 113° Southeast  Level Estimated
Fri 09:05:00 AM 22.4293 -106.0527 113° Southeast  Level Estimated
Fri 09:06:00 AM 22.3897 -105.9537 113° Southeast  Level Estimated
Fri 09:07:00 AM 22.3501 -105.8548 113° Southeast  Level Estimated
Fri 09:08:00 AM 22.3104 -105.7560 113° Southeast  Level Estimated
Fri 09:09:00 AM 22.2706 -105.6572 113° Southeast  Level Estimated
Fri 09:10:00 AM 22.2308 -105.5584 114° Southeast  Level Estimated
Fri 09:11:00 AM 22.1909 -105.4597 114° Southeast  Level Estimated
Fri 09:12:00 AM 22.1509 -105.3611 114° Southeast  Level Estimated
Fri 09:13:00 AM 22.1109 -105.2625 114° Southeast  Level Estimated
Fri 09:14:00 AM 22.0709 -105.1640 114° Southeast  Level Estimated
Fri 09:15:00 AM 22.0307 -105.0655 114° Southeast  Level Estimated
Fri 09:16:00 AM 21.9905 -104.9671 114° Southeast  Level Estimated
Fri 09:17:00 AM 21.9503 -104.8688 114° Southeast  Level Estimated
Fri 09:18:00 AM 21.9100 -104.7705 114° Southeast  Level Estimated
Fri 09:19:00 AM 21.8696 -104.6722 114° Southeast  Level Estimated
Fri 09:20:00 AM 21.8292 -104.5740 114° Southeast  Level Estimated
Fri 09:21:00 AM 21.7887 -104.4759 114° Southeast  Level Estimated
Fri 09:22:00 AM 21.7482 -104.3778 114° Southeast  Level Estimated
Fri 09:23:00 AM 21.7076 -104.2798 114° Southeast  Level Estimated
Fri 09:24:00 AM 21.6670 -104.1818 114° Southeast  Level Estimated
Fri 09:25:00 AM 21.6262 -104.0839 114° Southeast  Level Estimated
Fri 09:26:00 AM 21.5855 -103.9861 114° Southeast  Level Estimated
Fri 09:27:00 AM 21.5447 -103.8883 114° Southeast  Level Estimated
Fri 09:28:00 AM 21.5038 -103.7905 114° Southeast  Level Estimated
Fri 09:29:00 AM 21.4628 -103.6928 114° Southeast  Level Estimated
Fri 09:30:00 AM 21.4219 -103.5952 114° Southeast  Level Estimated
Fri 09:31:00 AM 21.3808 -103.4976 114° Southeast  Level Estimated
Fri 09:32:00 AM 21.3397 -103.4001 114° Southeast  Level Estimated
Fri 09:33:00 AM 21.2985 -103.3027 114° Southeast  Level Estimated
Fri 09:34:00 AM 21.2573 -103.2052 114° Southeast  Level Estimated
Fri 09:35:00 AM 21.2160 -103.1079 114° Southeast  Level Estimated
Fri 09:36:00 AM 21.1747 -103.0106 114° Southeast  Level Estimated
Fri 09:37:00 AM 21.1333 -102.9133 115° Southeast  Level Estimated
Fri 09:38:00 AM 21.0919 -102.8161 115° Southeast  Level Estimated
Fri 09:39:00 AM 21.0504 -102.7190 115° Southeast  Level Estimated
Fri 09:40:00 AM 21.0088 -102.6219 115° Southeast  Level Estimated
Fri 09:41:00 AM 20.9672 -102.5248 115° Southeast  Level Estimated
Fri 09:42:00 AM 20.9256 -102.4279 115° Southeast  Level Estimated
Fri 09:43:00 AM 20.8838 -102.3309 115° Southeast  Level Estimated
Fri 09:44:00 AM 20.8421 -102.2341 115° Southeast  Level Estimated
Fri 09:45:00 AM 20.8002 -102.1372 115° Southeast  Level Estimated
Fri 09:46:00 AM 20.7584 -102.0405 115° Southeast  Level Estimated
Fri 09:47:00 AM 20.7164 -101.9438 115° Southeast  Level Estimated
Fri 09:48:00 AM 20.6744 -101.8471 115° Southeast  Level Estimated
Fri 09:49:00 AM 20.6324 -101.7505 115° Southeast  Level Estimated
Fri 09:50:00 AM 20.5903 -101.6539 115° Southeast  Level Estimated
Fri 09:51:00 AM 20.5481 -101.5574 115° Southeast  Level Estimated
Fri 09:52:00 AM 20.5059 -101.4610 115° Southeast  Level Estimated
Fri 09:53:00 AM 20.4637 -101.3646 115° Southeast  Level Estimated
Fri 09:54:00 AM 20.4214 -101.2683 115° Southeast  Level Estimated
Fri 09:55:00 AM 20.3790 -101.1720 115° Southeast  Level Estimated
Fri 09:56:00 AM 20.3366 -101.0757 115° Southeast  Level Estimated
Fri 09:57:00 AM 20.2941 -100.9796 115° Southeast  Level Estimated
Fri 09:58:00 AM 20.2516 -100.8834 115° Southeast  Level Estimated
Fri 09:59:00 AM 20.2090 -100.7874 115° Southeast  Level Estimated
Fri 10:00:00 AM 20.1664 -100.6913 115° Southeast  Level Estimated
Fri 10:01:00 AM 20.1237 -100.5954 115° Southeast  Level Estimated
Fri 10:02:00 AM 20.0810 -100.4995 115° Southeast  Level Estimated
Fri 10:03:00 AM 20.0382 -100.4036 115° Southeast  Level Estimated
Fri 10:04:00 AM 19.9954 -100.3078 115° Southeast  Level Estimated
Fri 10:05:00 AM 19.9525 -100.2120 115° Southeast  Level Estimated
Fri 10:06:00 AM 19.9096 -100.1163 115° Southeast  Level Estimated
Fri 10:07:00 AM 19.8666 -100.0206 116° Southeast  Level Estimated
Fri 10:08:00 AM 19.8235 -99.9250 116° Southeast  Level Estimated
Fri 10:09:00 AM 19.7804 -99.8295 116° Southeast  Level Estimated
Fri 10:10:00 AM 19.7373 -99.7340 116° Southeast  Level Estimated
Fri 10:11:00 AM 19.6941 -99.6385 116° Southeast  Level Estimated
Fri 10:12:00 AM 19.6509 -99.5431 116° Southeast  Level Estimated
Fri 10:13:00 AM 19.6076 -99.4478 116° Southeast  Level Estimated
Fri 10:14:00 AM 19.5642 -99.3525 116° Southeast  Level Estimated
Fri 10:15:00 AM 19.5208 -99.2572 116° Southeast  Level Estimated
Fri 10:16:00 AM 19.4774 -99.1620 116° Southeast  Level Estimated
Fri 10:17:00 AM 19.4363 -99.0721 116° Southeast  Level Estimated
Fri 10:18:00 AM 19.4363 -99.0721 43° Northeast  Level Estimated
Fri 10:19:00 AM 19.4363 -99.0721 43° Northeast  Level Estimated
Fri 10:20:00 AM 19.4363 -99.0721 43° Northeast  Level Estimated
Fri 10:21:00 AM 19.4363 -99.0721 43° Northeast  Level Estimated
Fri 10:22:00 AM 19.4363 -99.0721 43° Northeast  Level Estimated
Fri 10:23:00 AM 19.4363 -99.0721 43° Northeast  Level Estimated
Fri 10:24:00 AM 19.4363 -99.0721 43° Northeast  Level Estimated

Login

Don't have an account? Register now (free) for customized features, flight alerts, and more!